Time;durP1;ratioP1;P1;durP2;ratioP2;P2;SDS_P1;SDS_P2;PMS_P1;PMS_P2;Temp;Humidity;BMP_temperature;BMP_pressure;BME280_temperature;BME280_humidity;BME280_pressure;Samples;Min_cycle;Max_cycle;Signal;HPM_P1;HPM_P2
2021/12/27 00:00:52;;;;;;;1.13;1.00;;;2.90;99.90;;;;;;5074670;28;20529;-76
2021/12/27 00:03:18;;;;;;;1.13;1.13;;;2.80;99.90;;;;;;5074630;28;20191;-76
2021/12/27 00:05:44;;;;;;;3.07;2.83;;;2.90;99.90;;;;;;5074498;28;20291;-76
2021/12/27 00:08:10;;;;;;;1.43;1.40;;;2.90;99.90;;;;;;5093304;28;20254;-75
2021/12/27 00:10:36;;;;;;;0.90;0.30;;;2.90;99.90;;;;;;5075181;28;20200;-77
2021/12/27 00:13:02;;;;;;;1.43;1.43;;;2.90;99.90;;;;;;5074479;28;20665;-78
2021/12/27 00:15:28;;;;;;;1.77;1.67;;;2.90;99.90;;;;;;5092542;28;20212;-78
2021/12/27 00:17:54;;;;;;;3.00;2.20;;;2.90;99.90;;;;;;5073991;28;20274;-78
2021/12/27 00:20:20;;;;;;;1.07;1.07;;;2.90;99.90;;;;;;5074881;28;20176;-77
2021/12/27 00:22:47;;;;;;;3.43;3.23;;;2.90;99.90;;;;;;5092373;28;20179;-77
2021/12/27 00:25:14;;;;;;;4.37;2.93;;;2.90;99.90;;;;;;5074140;28;20193;-78
2021/12/27 00:27:40;;;;;;;8.50;4.10;;;3.00;99.90;;;;;;5073763;28;20187;-78
2021/12/27 00:30:08;;;;;;;2.23;2.13;;;3.00;99.90;;;;;;5092479;28;20176;-77
2021/12/27 00:32:36;;;;;;;4.10;3.70;;;3.00;99.90;;;;;;5092192;28;20687;-77
2021/12/27 00:35:04;;;;;;;2.97;2.73;;;3.00;99.90;;;;;;5074100;28;20221;-77
2021/12/27 00:37:29;;;;;;;2.00;1.90;;;3.00;99.90;;;;;;5073452;28;20725;-77
2021/12/27 00:39:55;;;;;;;0.30;0.30;;;3.00;99.90;;;;;;5074012;28;20172;-77
2021/12/27 00:42:20;;;;;;;2.00;1.90;;;3.00;99.90;;;;;;5074018;28;20206;-76
2021/12/27 00:44:46;;;;;;;1.40;1.00;;;3.10;99.90;;;;;;5073962;28;20687;-76
2021/12/27 00:47:11;;;;;;;0.73;0.73;;;3.10;99.90;;;;;;5073457;28;20228;-75
2021/12/27 00:49:37;;;;;;;1.27;1.10;;;3.10;99.90;;;;;;5073882;28;20592;-76
2021/12/27 00:52:03;;;;;;;1.23;1.20;;;3.10;99.90;;;;;;5073683;28;20178;-75
2021/12/27 00:54:29;;;;;;;6.80;3.53;;;3.10;99.90;;;;;;5073790;28;20202;-76
2021/12/27 00:56:54;;;;;;;1.63;1.63;;;3.10;99.90;;;;;;5073463;28;20229;-76
2021/12/27 00:59:20;;;;;;;1.43;1.43;;;3.10;99.90;;;;;;5073653;28;20712;-76
2021/12/27 01:01:45;;;;;;;1.07;1.03;;;3.10;99.90;;;;;;5073671;28;20796;-76
2021/12/27 01:04:11;;;;;;;0.80;0.80;;;3.10;99.90;;;;;;5073756;28;20227;-77
2021/12/27 01:06:37;;;;;;;1.93;1.83;;;3.10;99.90;;;;;;5073287;28;20198;-76
2021/12/27 01:09:04;;;;;;;3.13;2.90;;;3.20;99.90;;;;;;5073655;28;20203;-76
2021/12/27 01:14:13;;;;;;;1.13;1.03;;;3.10;99.90;;;;;;5091743;28;20551;-76
2021/12/27 01:16:41;;;;;;;0.47;0.47;;;3.20;99.90;;;;;;5091433;28;20258;-77
2021/12/27 01:19:06;;;;;;;2.93;2.83;;;3.20;99.90;;;;;;5073548;28;20172;-77
2021/12/27 01:21:32;;;;;;;9.13;4.77;;;3.20;99.90;;;;;;5073559;28;20180;-77
2021/12/27 01:23:59;;;;;;;2.20;2.10;;;3.10;99.90;;;;;;5073655;28;20207;-77
2021/12/27 01:26:27;;;;;;;1.13;0.73;;;3.20;99.90;;;;;;5073083;28;20231;-77
2021/12/27 01:28:56;;;;;;;1.03;1.03;;;3.20;99.90;;;;;;5073340;28;20831;-77
2021/12/27 01:31:22;;;;;;;1.13;1.13;;;3.20;99.90;;;;;;5073553;28;20224;-77
2021/12/27 01:33:49;;;;;;;2.30;2.13;;;3.10;99.90;;;;;;5079901;28;20177;-76
2021/12/27 01:36:15;;;;;;;3.70;2.43;;;3.10;99.90;;;;;;5080281;28;20179;-77
2021/12/27 01:38:41;;;;;;;1.53;1.43;;;3.10;99.90;;;;;;5080196;28;20304;-77
2021/12/27 01:41:10;;;;;;;1.70;1.40;;;3.10;99.90;;;;;;5080091;28;20188;-76
2021/12/27 01:43:37;;;;;;;0.47;0.47;;;3.10;99.90;;;;;;5079963;28;20175;-76
2021/12/27 01:46:07;;;;;;;5.30;0.73;;;3.10;99.90;;;;;;5098148;28;20214;-76
2021/12/27 01:48:38;;;;;;;10.87;1.77;;;3.10;99.90;;;;;;5084214;28;20174;-76
2021/12/27 01:51:07;;;;;;;3.13;2.93;;;3.10;99.90;;;;;;5098048;28;20243;-75
2021/12/27 01:53:34;;;;;;;2.93;2.73;;;3.20;99.90;;;;;;5080230;28;20268;-76
2021/12/27 01:56:00;;;;;;;0.20;0.20;;;3.20;99.90;;;;;;5098028;28;20282;-76
2021/12/27 01:58:27;;;;;;;1.50;1.50;;;3.20;99.90;;;;;;5080198;28;20178;-75
2021/12/27 02:00:57;;;;;;;1.30;1.30;;;3.20;99.90;;;;;;5080250;28;20663;-76
2021/12/27 02:03:28;;;;;;;1.57;1.50;;;3.20;99.90;;;;;;5080163;28;20177;-75
2021/12/27 02:05:54;;;;;;;2.93;2.53;;;3.20;99.90;;;;;;5079600;28;20222;-76
2021/12/27 02:08:21;;;;;;;0.60;0.60;;;3.20;99.90;;;;;;5079924;28;20222;-76
2021/12/27 02:10:49;;;;;;;3.27;3.07;;;3.20;99.90;;;;;;5080058;28;20260;-76
2021/12/27 02:13:15;;;;;;;2.50;1.73;;;3.20;99.90;;;;;;5079835;28;20234;-76
2021/12/27 02:15:41;;;;;;;2.77;2.50;;;3.30;99.90;;;;;;5097890;28;20243;-76
2021/12/27 02:18:11;;;;;;;2.40;1.50;;;3.20;99.90;;;;;;5079381;28;20204;-75
2021/12/27 02:20:39;;;;;;;6.13;2.73;;;3.20;99.90;;;;;;5097300;28;20177;-77
2021/12/27 02:23:12;;;;;;;2.17;1.83;;;3.20;99.90;;;;;;5081550;28;20313;-76
2021/12/27 02:25:38;;;;;;;1.83;1.80;;;3.30;99.90;;;;;;5079502;28;20196;-76
2021/12/27 02:28:06;;;;;;;1.10;1.10;;;3.20;99.90;;;;;;5097902;28;20222;-76
2021/12/27 02:30:33;;;;;;;2.37;2.27;;;3.20;99.90;;;;;;5079931;28;20176;-77
2021/12/27 02:33:05;;;;;;;2.93;2.73;;;3.30;99.90;;;;;;5080094;28;20168;-76
2021/12/27 02:35:34;;;;;;;1.03;1.03;;;3.30;99.90;;;;;;5079487;28;20340;-76
2021/12/27 02:38:01;;;;;;;1.70;1.60;;;3.20;99.90;;;;;;5079158;28;20230;-76
2021/12/27 02:40:29;;;;;;;1.43;1.43;;;3.20;99.90;;;;;;5079420;28;20257;-76
2021/12/27 02:43:00;;;;;;;1.60;1.60;;;3.20;99.90;;;;;;5079456;28;20538;-76
2021/12/27 02:45:31;;;;;;;4.30;3.93;;;3.30;99.90;;;;;;5093590;28;20255;-77
2021/12/27 02:47:57;;;;;;;1.67;1.63;;;3.30;99.90;;;;;;5093835;28;20670;-77
2021/12/27 02:50:24;;;;;;;1.03;1.03;;;3.20;99.90;;;;;;5094415;28;20172;-76
2021/12/27 02:52:50;;;;;;;4.43;2.20;;;3.30;99.90;;;;;;5076559;28;20201;-77
2021/12/27 02:55:17;;;;;;;1.67;1.67;;;3.30;99.90;;;;;;5075878;28;20227;-76
2021/12/27 02:57:44;;;;;;;3.93;3.57;;;3.30;99.90;;;;;;5075831;28;20187;-76
2021/12/27 03:00:16;;;;;;;6.03;4.80;;;3.30;99.90;;;;;;5075980;28;20214;-76
2021/12/27 03:02:43;;;;;;;5.63;2.47;;;3.30;99.90;;;;;;5094443;28;20187;-76
2021/12/27 03:05:10;;;;;;;0.93;0.93;;;3.30;99.90;;;;;;5076123;28;20197;-76
2021/12/27 03:07:36;;;;;;;0.83;0.83;;;3.30;99.90;;;;;;5075427;28;20713;-77
2021/12/27 03:10:03;;;;;;;2.97;1.83;;;3.30;99.90;;;;;;5075833;28;20278;-76
2021/12/27 03:12:28;;;;;;;3.27;2.17;;;3.30;99.90;;;;;;5075917;28;20180;-76
2021/12/27 03:14:54;;;;;;;4.40;2.30;;;3.30;99.90;;;;;;5075738;28;20695;-77
2021/12/27 03:17:19;;;;;;;2.87;2.77;;;3.30;99.90;;;;;;5075367;28;20176;-78
2021/12/27 03:19:45;;;;;;;1.23;1.23;;;3.20;99.90;;;;;;5075714;28;20184;-77
2021/12/27 03:22:11;;;;;;;1.27;0.80;;;3.20;99.90;;;;;;5075862;28;20301;-76
2021/12/27 03:24:36;;;;;;;4.30;2.73;;;3.30;99.90;;;;;;5075641;28;20228;-77
2021/12/27 03:27:02;;;;;;;3.00;2.67;;;3.30;99.90;;;;;;5075103;28;20212;-77
2021/12/27 03:29:28;;;;;;;4.40;3.00;;;3.30;99.90;;;;;;5075399;28;20269;-77
2021/12/27 03:31:55;;;;;;;4.27;3.97;;;3.40;99.90;;;;;;5075639;28;20755;-77
2021/12/27 03:34:21;;;;;;;3.20;2.97;;;3.40;99.90;;;;;;5075472;28;20201;-77
2021/12/27 03:36:47;;;;;;;5.50;2.70;;;3.40;99.90;;;;;;5075139;28;20200;-76
2021/12/27 03:39:13;;;;;;;2.20;2.10;;;3.40;99.90;;;;;;5075854;28;20181;-77
2021/12/27 03:41:39;;;;;;;0.20;0.20;;;3.40;99.90;;;;;;5093981;28;20532;-77
2021/12/27 03:44:04;;;;;;;0.40;0.40;;;3.40;99.90;;;;;;5075121;28;20433;-76
2021/12/27 03:46:30;;;;;;;0.80;0.80;;;3.40;99.90;;;;;;5093153;28;20208;-77
2021/12/27 03:48:56;;;;;;;1.90;1.80;;;3.40;99.90;;;;;;5076076;28;20180;-77
2021/12/27 03:51:22;;;;;;;2.03;1.77;;;3.40;99.90;;;;;;5093457;28;20632;-77
2021/12/27 03:53:48;;;;;;;5.20;3.43;;;3.50;99.90;;;;;;5074909;28;20182;-77
2021/12/27 03:56:14;;;;;;;2.27;1.40;;;3.50;99.90;;;;;;5074424;28;20247;-76
2021/12/27 03:59:51;;;;;;;5.87;4.07;;;3.50;99.90;;;;;;5077372;28;20181;-77
2021/12/27 04:01:34;;;;;;;4.97;1.30;;;3.50;99.90;;;;;;5089462;28;20556;-76
2021/12/27 04:04:00;;;;;;;3.90;3.60;;;3.50;99.90;;;;;;5074799;28;20188;-76
2021/12/27 04:06:27;;;;;;;3.63;1.57;;;3.50;99.90;;;;;;5092624;28;20197;-76
2021/12/27 04:08:53;;;;;;;0.43;0.43;;;3.50;99.90;;;;;;5074538;28;20533;-76
2021/12/27 04:11:19;;;;;;;0.30;0.30;;;3.50;99.90;;;;;;5074743;28;20177;-76
2021/12/27 04:13:45;;;;;;;1.70;1.67;;;3.60;99.90;;;;;;5093029;28;20178;-76
2021/12/27 04:16:10;;;;;;;1.80;1.70;;;3.60;99.90;;;;;;5078313;22;20606;-73
2021/12/27 04:18:36;;;;;;;1.63;1.63;;;3.60;99.90;;;;;;5053976;28;20184;-74
2021/12/27 04:21:03;;;;;;;0.97;0.97;;;3.60;99.90;;;;;;5072325;28;20678;-74
2021/12/27 04:23:28;;;;;;;3.50;2.73;;;3.60;99.90;;;;;;5072246;28;20177;-73
2021/12/27 04:25:54;;;;;;;1.97;1.87;;;3.60;99.90;;;;;;5068159;28;20201;-72
2021/12/27 04:28:20;;;;;;;4.77;2.33;;;3.70;99.90;;;;;;5073695;28;20270;-72
2021/12/27 04:30:46;;;;;;;0.83;0.83;;;3.70;99.90;;;;;;5092422;28;20170;-73
2021/12/27 04:33:11;;;;;;;1.50;1.40;;;3.70;99.90;;;;;;5092416;28;20169;-72
2021/12/27 04:35:37;;;;;;;1.90;1.23;;;3.70;99.90;;;;;;5092275;28;20208;-72
2021/12/27 04:38:04;;;;;;;2.10;2.00;;;3.70;99.90;;;;;;5091761;28;20204;-73
2021/12/27 04:40:34;;;;;;;1.13;1.13;;;3.70;99.90;;;;;;5078290;28;20190;-72
2021/12/27 04:43:09;;;;;;;2.40;2.30;;;3.70;99.90;;;;;;5092052;28;20165;-73
2021/12/27 04:45:36;;;;;;;0.57;0.57;;;3.80;99.90;;;;;;5092158;28;20190;-73
2021/12/27 04:48:01;;;;;;;2.57;2.47;;;3.80;99.90;;;;;;5083600;28;20179;-73
2021/12/27 04:50:27;;;;;;;1.23;1.17;;;3.80;99.90;;;;;;5073944;28;20175;-73
2021/12/27 04:52:53;;;;;;;1.43;1.27;;;3.80;99.90;;;;;;5091867;28;20260;-73
2021/12/27 04:55:24;;;;;;;5.80;2.90;;;3.80;99.90;;;;;;5092224;28;20222;-73
2021/12/27 04:57:50;;;;;;;1.37;1.27;;;3.80;99.90;;;;;;5091533;28;20683;-73
2021/12/27 05:00:16;;;;;;;2.10;1.33;;;3.80;99.90;;;;;;5091839;28;20178;-73
2021/12/27 05:02:42;;;;;;;0.87;0.87;;;3.80;99.90;;;;;;5092182;28;20266;-73
2021/12/27 05:05:07;;;;;;;0.73;0.73;;;3.80;99.90;;;;;;5091667;28;20197;-73
2021/12/27 05:07:33;;;;;;;0.67;0.67;;;3.80;99.90;;;;;;5090878;28;20198;-73
2021/12/27 05:09:59;;;;;;;2.47;1.90;;;3.80;99.90;;;;;;5091716;28;20178;-73
2021/12/27 05:12:25;;;;;;;3.37;2.07;;;3.80;99.90;;;;;;5091945;28;20235;-73
2021/12/27 05:14:50;;;;;;;2.90;2.70;;;3.80;99.90;;;;;;5091459;28;20673;-73
2021/12/27 05:17:16;;;;;;;30.37;3.07;;;3.80;99.90;;;;;;5091088;28;20307;-73
2021/12/27 05:19:41;;;;;;;1.30;1.30;;;3.80;99.90;;;;;;5091389;28;20224;-73
2021/12/27 05:22:07;;;;;;;0.80;0.80;;;3.80;99.90;;;;;;5091858;28;20182;-73
2021/12/27 05:24:32;;;;;;;1.67;0.90;;;3.80;99.90;;;;;;5091526;28;20222;-73
2021/12/27 05:26:58;;;;;;;0.67;0.67;;;3.80;99.90;;;;;;5073018;28;20615;-73
2021/12/27 05:29:24;;;;;;;0.43;0.43;;;3.80;99.90;;;;;;5091466;28;20839;-73
2021/12/27 05:31:51;;;;;;;1.03;1.03;;;3.80;99.90;;;;;;5091417;28;20198;-73
2021/12/27 05:34:16;;;;;;;1.03;0.97;;;3.80;99.90;;;;;;5091501;28;20201;-73
2021/12/27 05:36:42;;;;;;;0.87;0.87;;;3.90;99.90;;;;;;5091220;28;20708;-73
2021/12/27 05:39:15;;;;;;;1.80;1.67;;;3.90;99.90;;;;;;5086387;28;20182;-73
2021/12/27 05:41:41;;;;;;;0.33;0.33;;;3.90;99.90;;;;;;5083856;28;20177;-73
2021/12/27 05:44:06;;;;;;;1.10;1.10;;;3.90;99.90;;;;;;5091444;28;20718;-73
2021/12/27 05:46:32;;;;;;;1.50;1.40;;;3.90;99.90;;;;;;5083625;28;20302;-72
2021/12/27 05:48:57;;;;;;;2.27;1.13;;;3.90;99.90;;;;;;5090181;28;20181;-73
2021/12/27 05:51:23;;;;;;;4.57;2.57;;;3.90;99.90;;;;;;5073348;28;20178;-73
2021/12/27 05:53:48;;;;;;;2.27;2.17;;;3.90;99.90;;;;;;5093217;28;20212;-73
2021/12/27 05:56:14;;;;;;;1.83;1.73;;;3.90;99.90;;;;;;5092490;28;20226;-73
2021/12/27 05:58:39;;;;;;;7.97;4.57;;;3.90;99.90;;;;;;5090115;28;20184;-73
2021/12/27 06:01:05;;;;;;;0.50;0.50;;;3.90;99.90;;;;;;5090677;28;20181;-73
2021/12/27 06:03:30;;;;;;;1.70;1.20;;;3.90;99.90;;;;;;5091207;28;20188;-73
2021/12/27 06:05:56;;;;;;;2.13;2.03;;;3.90;99.90;;;;;;5090814;28;20202;-73
2021/12/27 06:08:22;;;;;;;0.20;0.20;;;3.90;99.90;;;;;;5091222;28;20521;-73
2021/12/27 06:10:47;;;;;;;1.17;1.17;;;3.90;99.90;;;;;;5091282;28;20641;-73
2021/12/27 06:13:13;;;;;;;1.03;1.03;;;3.90;99.90;;;;;;5091116;28;20207;-73
2021/12/27 06:15:39;;;;;;;1.53;1.43;;;3.90;99.90;;;;;;5090831;28;20221;-72
2021/12/27 06:18:04;;;;;;;0.77;0.77;;;4.00;99.90;;;;;;5091645;28;20190;-74
2021/12/27 06:20:30;;;;;;;0.40;0.40;;;4.00;99.90;;;;;;5076638;28;20214;-72
2021/12/27 06:22:58;;;;;;;1.80;1.67;;;4.00;99.90;;;;;;5094938;28;20170;-73
2021/12/27 06:25:24;;;;;;;0.50;0.50;;;4.00;99.90;;;;;;5094641;28;20670;-72
2021/12/27 06:27:50;;;;;;;1.47;1.47;;;4.00;99.90;;;;;;5076220;28;20212;-72
2021/12/27 06:30:16;;;;;;;1.47;1.27;;;4.00;99.90;;;;;;5097738;28;20710;-72
2021/12/27 06:32:42;;;;;;;1.33;1.23;;;4.00;99.90;;;;;;5095454;28;20188;-72
2021/12/27 06:35:10;;;;;;;0.93;0.93;;;4.00;99.90;;;;;;5094695;28;20580;-72
2021/12/27 06:37:41;;;;;;;0.23;0.23;;;4.00;99.90;;;;;;5076119;28;20195;-72
2021/12/27 06:40:08;;;;;;;0.30;0.30;;;3.90;99.90;;;;;;5081196;28;20178;-72
2021/12/27 06:42:34;;;;;;;4.43;1.70;;;3.90;99.90;;;;;;5094307;28;20177;-72
2021/12/27 06:44:59;;;;;;;0.30;0.30;;;3.90;99.90;;;;;;5094472;28;20675;-72
2021/12/27 06:47:26;;;;;;;2.77;2.57;;;3.90;99.90;;;;;;5085757;28;20206;-72
2021/12/27 06:49:52;;;;;;;4.80;1.47;;;3.90;99.90;;;;;;5094397;28;20180;-72
2021/12/27 06:52:18;;;;;;;0.10;0.10;;;4.00;99.90;;;;;;5094233;28;20177;-72
2021/12/27 06:54:44;;;;;;;5.50;1.97;;;4.00;99.90;;;;;;5094102;28;20206;-71
2021/12/27 06:57:09;;;;;;;1.67;1.57;;;4.10;99.90;;;;;;5094144;28;20192;-71
2021/12/27 06:59:35;;;;;;;0.87;0.87;;;4.00;99.90;;;;;;5096533;28;20201;-72
2021/12/27 07:02:01;;;;;;;0.20;0.20;;;4.00;99.90;;;;;;5094775;28;20194;-71
2021/12/27 07:04:26;;;;;;;0.93;0.93;;;4.00;99.90;;;;;;5094152;28;20182;-71
2021/12/27 07:06:53;;;;;;;0.60;0.60;;;4.00;99.90;;;;;;5077033;28;20194;-72
2021/12/27 07:09:18;;;;;;;0.10;0.10;;;3.90;99.90;;;;;;5095984;28;20178;-71
2021/12/27 07:11:44;;;;;;;0.77;0.77;;;3.90;99.90;;;;;;5094787;28;20224;-72
2021/12/27 07:14:09;;;;;;;0.70;0.70;;;3.90;99.90;;;;;;5094609;28;20178;-72
2021/12/27 07:16:35;;;;;;;1.17;1.07;;;3.90;99.90;;;;;;5094339;28;20304;-72
2021/12/27 07:19:00;;;;;;;0.83;0.83;;;3.80;99.90;;;;;;5093940;28;20211;-73
2021/12/27 07:21:26;;;;;;;3.17;2.10;;;3.80;99.90;;;;;;5093694;28;20261;-72
2021/12/27 07:23:52;;;;;;;0.60;0.60;;;3.70;99.90;;;;;;5093617;28;20185;-72
2021/12/27 07:26:17;;;;;;;0.67;0.50;;;3.70;99.90;;;;;;5075538;28;20206;-72
2021/12/27 07:28:43;;;;;;;0.50;0.50;;;3.70;99.90;;;;;;5075687;28;20636;-72
2021/12/27 07:31:09;;;;;;;0.17;0.17;;;3.60;99.90;;;;;;5093144;28;20251;-72
2021/12/27 07:33:35;;;;;;;1.50;1.47;;;3.50;99.90;;;;;;5093556;28;20176;-73
2021/12/27 07:36:01;;;;;;;5.17;3.13;;;3.50;99.90;;;;;;5093075;28;20209;-72
2021/12/27 07:38:27;;;;;;;0.47;0.47;;;3.40;99.90;;;;;;5093348;28;20259;-72
2021/12/27 07:40:53;;;;;;;1.13;1.13;;;3.40;99.90;;;;;;5079616;28;20327;-73
2021/12/27 07:43:18;;;;;;;0.30;0.30;;;3.40;99.90;;;;;;5093478;28;20236;-74
2021/12/27 07:45:44;;;;;;;2.13;1.50;;;3.40;99.90;;;;;;5092320;28;20300;-72
2021/12/27 07:48:10;;;;;;;1.87;1.77;;;3.30;99.90;;;;;;5085333;28;20176;-74
2021/12/27 07:50:36;;;;;;;1.07;1.07;;;;;;;;;;5093039;28;20179;-74
2021/12/27 07:53:04;;;;;;;2.57;2.37;;;3.10;99.90;;;;;;5093135;28;20234;-74
2021/12/27 07:55:30;;;;;;;0.50;0.50;;;3.10;99.90;;;;;;5092842;28;20192;-76
2021/12/27 07:57:57;;;;;;;3.17;2.93;;;3.10;99.90;;;;;;5092842;28;20187;-76
2021/12/27 08:00:23;;;;;;;2.73;1.67;;;3.10;99.90;;;;;;5092879;28;20191;-74
2021/12/27 08:02:48;;;;;;;2.00;1.90;;;3.10;99.90;;;;;;5075004;28;20180;-74
2021/12/27 08:05:15;;;;;;;2.43;1.90;;;3.10;99.90;;;;;;5074469;28;20201;-74
2021/12/27 08:07:42;;;;;;;15.40;2.97;;;3.10;99.90;;;;;;5092940;28;20231;-74
2021/12/27 08:10:09;;;;;;;0.80;0.80;;;3.20;99.90;;;;;;5074787;28;20341;-76
2021/12/27 08:12:36;;;;;;;0.30;0.30;;;3.30;99.90;;;;;;5074495;28;20188;-76
2021/12/27 08:15:06;;;;;;;1.97;1.83;;;3.30;99.90;;;;;;5066940;28;20225;-76
2021/12/27 08:17:32;;;;;;;25.13;4.73;;;3.40;99.90;;;;;;5068695;28;20186;-76
2021/12/27 08:19:58;;;;;;;3.17;2.30;;;3.50;99.90;;;;;;5074275;28;20253;-76
2021/12/27 08:22:24;;;;;;;1.90;1.80;;;3.50;99.90;;;;;;5074047;28;20648;-76
2021/12/27 08:24:50;;;;;;;1.07;1.07;;;3.60;99.90;;;;;;5074242;28;20459;-73
2021/12/27 08:27:17;;;;;;;4.67;1.07;;;3.60;99.90;;;;;;5092065;28;20209;-72
2021/12/27 08:29:42;;;;;;;0.10;0.10;;;3.70;99.90;;;;;;5092625;28;20264;-72
2021/12/27 08:32:08;;;;;;;5.20;1.60;;;3.70;99.90;;;;;;5073822;28;20645;-72
2021/12/27 08:34:33;;;;;;;1.27;1.17;;;3.80;99.90;;;;;;5092287;28;20205;-72
2021/12/27 08:36:59;;;;;;;1.80;0.67;;;4.00;99.90;;;;;;5091478;28;20185;-72
2021/12/27 08:39:25;;;;;;;2.13;2.03;;;4.00;99.90;;;;;;5066461;28;20277;-72
2021/12/27 08:41:51;;;;;;;0.50;0.50;;;4.10;99.90;;;;;;5067019;28;20269;-73
2021/12/27 08:44:17;;;;;;;2.37;2.27;;;4.10;99.90;;;;;;5073661;28;20614;-72
2021/12/27 08:46:43;;;;;;;2.43;2.23;;;4.10;99.90;;;;;;5065245;28;20216;-72
2021/12/27 08:49:09;;;;;;;1.40;0.93;;;4.20;99.90;;;;;;5073810;28;20187;-72
2021/12/27 08:51:35;;;;;;;0.97;0.97;;;4.20;99.90;;;;;;5091775;28;20210;-73
2021/12/27 08:54:02;;;;;;;0.80;0.80;;;4.20;99.90;;;;;;5073936;28;20270;-73
2021/12/27 08:56:28;;;;;;;1.50;1.23;;;4.30;99.90;;;;;;5091493;28;20249;-74
2021/12/27 08:58:54;;;;;;;6.07;3.60;;;4.20;99.90;;;;;;5073706;28;20621;-72
2021/12/27 09:01:20;;;;;;;1.13;1.13;;;4.30;99.90;;;;;;5073783;28;20207;-72
2021/12/27 09:03:46;;;;;;;5.77;3.53;;;4.30;99.90;;;;;;5073634;28;20221;-73
2021/12/27 09:06:14;;;;;;;2.60;0.93;;;4.40;99.90;;;;;;5090994;28;20275;-73
2021/12/27 09:08:40;;;;;;;3.90;1.10;;;4.40;99.90;;;;;;5073477;28;20596;-73
2021/12/27 09:11:06;;;;;;;2.37;2.00;;;4.50;99.90;;;;;;5073623;28;20188;-73
2021/12/27 09:13:33;;;;;;;1.07;0.80;;;4.50;99.90;;;;;;5061713;28;20174;-73
2021/12/27 09:16:03;;;;;;;3.40;3.20;;;4.50;99.90;;;;;;5073860;28;20223;-72
2021/12/27 09:18:33;;;;;;;1.50;1.30;;;4.50;99.90;;;;;;5062858;28;20194;-72
2021/12/27 09:21:00;;;;;;;2.60;2.50;;;4.50;99.90;;;;;;5071933;28;20172;-72
2021/12/27 09:23:26;;;;;;;1.80;1.67;;;4.60;99.90;;;;;;5091683;28;20186;-72
2021/12/27 09:25:51;;;;;;;0.10;0.10;;;4.60;99.90;;;;;;5072927;28;20704;-72
2021/12/27 09:28:17;;;;;;;4.07;3.20;;;4.60;99.90;;;;;;5091382;28;20187;-73
2021/12/27 09:30:43;;;;;;;3.13;2.13;;;4.60;99.90;;;;;;5061960;28;20282;-72
2021/12/27 09:33:09;;;;;;;0.40;0.40;;;4.70;99.90;;;;;;5073036;28;20558;-72
2021/12/27 09:35:35;;;;;;;0.87;0.87;;;4.70;99.90;;;;;;5073076;28;20246;-72
2021/12/27 09:38:01;;;;;;;2.40;2.30;;;4.80;99.90;;;;;;5073097;28;20240;-72
2021/12/27 09:40:27;;;;;;;0.60;0.60;;;4.80;99.90;;;;;;5059651;28;20643;-73
2021/12/27 09:42:53;;;;;;;7.47;3.70;;;4.80;99.90;;;;;;5073303;28;20443;-73
2021/12/27 09:45:20;;;;;;;10.17;5.63;;;4.90;99.90;;;;;;5072932;28;20196;-73
2021/12/27 09:47:47;;;;;;;1.90;1.80;;;4.90;99.90;;;;;;5065195;28;20257;-72
2021/12/27 09:50:18;;;;;;;1.90;1.80;;;4.90;99.90;;;;;;5072928;28;20179;-72
2021/12/27 09:52:45;;;;;;;3.47;2.33;;;5.00;99.90;;;;;;5091507;28;20195;-73
2021/12/27 09:55:11;;;;;;;2.90;2.70;;;5.00;99.90;;;;;;5076910;28;20249;-72
2021/12/27 09:57:38;;;;;;;3.43;1.30;;;5.10;99.90;;;;;;5076688;28;20194;-72
2021/12/27 10:00:07;;;;;;;1.37;1.37;;;5.10;99.90;;;;;;5077038;28;20183;-72
2021/12/27 10:02:37;;;;;;;9.73;6.50;;;5.10;99.90;;;;;;5060077;28;20199;-72
2021/12/27 10:05:03;;;;;;;2.37;2.20;;;5.10;99.90;;;;;;5076931;28;20678;-73
2021/12/27 10:07:29;;;;;;;1.77;1.67;;;5.20;99.90;;;;;;5076356;28;20207;-73
2021/12/27 10:09:59;;;;;;;4.73;2.83;;;5.10;99.90;;;;;;5095034;28;20283;-75
2021/12/27 10:12:27;;;;;;;1.03;1.03;;;5.20;99.90;;;;;;5058155;28;20180;-73
2021/12/27 10:15:00;;;;;;;3.47;3.20;;;5.20;99.90;;;;;;5058097;28;20505;-73
2021/12/27 10:17:30;;;;;;;0.73;0.73;;;5.20;99.90;;;;;;5060032;28;20176;-72
2021/12/27 10:20:07;;;;;;;1.40;1.37;;;5.20;99.90;;;;;;5063922;28;20186;-72
2021/12/27 10:22:40;;;;;;;1.70;1.50;;;5.30;99.90;;;;;;5076532;28;20186;-73
2021/12/27 10:25:19;;;;;;;4.47;1.23;;;5.40;99.90;;;;;;5076554;28;20196;-72
2021/12/27 10:27:47;;;;;;;2.00;1.90;;;5.40;99.90;;;;;;5076431;28;20207;-72
2021/12/27 10:30:16;;;;;;;7.37;2.17;;;5.40;99.90;;;;;;5076437;28;20690;-72
2021/12/27 10:32:43;;;;;;;2.90;2.70;;;5.50;99.90;;;;;;5082410;28;20175;-72
2021/12/27 10:35:11;;;;;;;0.33;0.33;;;5.50;99.90;;;;;;5096309;28;20195;-72
2021/12/27 10:37:37;;;;;;;2.53;2.33;;;5.60;99.90;;;;;;5075906;28;20191;-72
2021/12/27 10:40:08;;;;;;;12.10;2.63;;;5.60;99.90;;;;;;5063408;28;20196;-73
2021/12/27 10:42:43;;;;;;;2.53;0.77;;;5.70;99.90;;;;;;5076192;28;20180;-72
2021/12/27 10:45:12;;;;;;;6.93;2.93;;;5.80;99.90;;;;;;5075993;28;20264;-73
2021/12/27 10:47:42;;;;;;;5.13;2.73;;;5.90;99.90;;;;;;5078765;28;20200;-73
2021/12/27 10:50:12;;;;;;;1.47;1.03;;;6.00;99.90;;;;;;5089829;28;20176;-72
2021/12/27 10:52:49;;;;;;;0.90;0.90;;;6.20;99.90;;;;;;5072267;28;20547;-72
2021/12/27 10:55:24;;;;;;;2.57;2.33;;;6.30;99.90;;;;;;5091830;28;20199;-72
2021/12/27 10:57:52;;;;;;;2.87;1.97;;;6.30;99.90;;;;;;5094178;28;20347;-73
2021/12/27 11:00:31;;;;;;;1.63;1.63;;;6.30;99.90;;;;;;5075625;28;20190;-73
2021/12/27 11:03:02;;;;;;;0.50;0.50;;;6.30;99.90;;;;;;5075789;28;20183;-72
2021/12/27 11:05:29;;;;;;;1.57;1.50;;;6.40;99.90;;;;;;5074568;28;20601;-72
2021/12/27 11:08:02;;;;;;;1.30;1.20;;;6.50;99.90;;;;;;5093364;28;20195;-73
2021/12/27 11:10:34;;;;;;;2.77;2.57;;;6.60;99.90;;;;;;5094100;28;20247;-73
2021/12/27 11:13:00;;;;;;;1.90;1.67;;;6.60;99.90;;;;;;5093775;28;20178;-73
2021/12/27 11:15:32;;;;;;;1.07;1.07;;;6.70;99.90;;;;;;5093560;28;20215;-72
2021/12/27 11:17:58;;;;;;;2.57;2.30;;;6.90;99.90;;;;;;5092644;28;20217;-72
2021/12/27 11:20:25;;;;;;;2.30;2.10;;;7.00;99.90;;;;;;5093491;28;20206;-73
2021/12/27 11:22:53;;;;;;;1.23;0.87;;;7.10;99.90;;;;;;5093555;28;20180;-73
2021/12/27 11:25:33;;;;;;;0.50;0.50;;;7.20;99.90;;;;;;5074849;28;20202;-72
2021/12/27 11:28:00;;;;;;;2.30;1.33;;;7.30;99.90;;;;;;5074832;28;20206;-72
2021/12/27 11:30:30;;;;;;;2.47;2.17;;;7.30;99.90;;;;;;5075267;28;20274;-73
2021/12/27 11:33:12;;;;;;;2.17;2.07;;;7.40;99.90;;;;;;5075127;28;20184;-72
2021/12/27 11:35:51;;;;;;;2.23;2.13;;;7.40;99.90;;;;;;5075053;28;20636;-72
2021/12/27 11:38:34;;;;;;;0.80;0.80;;;7.50;99.90;;;;;;5075168;28;20271;-73
2021/12/27 11:41:03;;;;;;;0.83;0.80;;;7.70;99.90;;;;;;5049431;28;20259;-73
2021/12/27 11:43:52;;;;;;;2.70;2.53;;;7.90;99.90;;;;;;5092924;28;20180;-72
2021/12/27 11:46:18;;;;;;;0.67;0.67;;;7.70;99.90;;;;;;5069182;28;20196;-73
2021/12/27 11:48:47;;;;;;;0.77;0.77;;;7.60;99.90;;;;;;5072442;28;20198;-73
2021/12/27 11:51:13;;;;;;;2.60;1.13;;;7.50;99.90;;;;;;5074695;28;20204;-73
2021/12/27 11:53:48;;;;;;;2.20;2.10;;;7.40;99.90;;;;;;5074788;28;20182;-72
2021/12/27 11:56:42;;;;;;;1.67;1.40;;;7.50;99.90;;;;;;5092365;28;20214;-72
2021/12/27 11:59:22;;;;;;;1.70;1.60;;;7.50;99.90;;;;;;5093046;28;20284;-72
2021/12/27 12:01:51;;;;;;;3.40;1.57;;;7.50;99.90;;;;;;5074798;28;20227;-72
2021/12/27 12:04:42;;;;;;;2.03;1.03;;;7.40;99.90;;;;;;5074358;28;20225;-72
2021/12/27 12:07:10;;;;;;;5.77;0.83;;;7.40;99.90;;;;;;5092377;28;20739;-72
2021/12/27 12:09:46;;;;;;;1.23;0.97;;;7.40;99.90;;;;;;5074235;28;20179;-72
2021/12/27 12:12:13;;;;;;;0.37;0.37;;;7.50;99.90;;;;;;5074409;28;20191;-72
2021/12/27 12:14:41;;;;;;;1.23;0.97;;;7.50;99.90;;;;;;5092211;28;20261;-73
2021/12/27 12:17:14;;;;;;;1.80;0.80;;;7.50;99.90;;;;;;5073667;28;20186;-73
2021/12/27 12:19:41;;;;;;;1.07;1.07;;;7.50;99.90;;;;;;5074229;28;20689;-72
2021/12/27 12:22:28;;;;;;;0.63;0.50;;;7.40;99.90;;;;;;5074313;28;20190;-72
2021/12/27 12:25:21;;;;;;;0.67;0.67;;;7.40;99.90;;;;;;5074146;28;20199;-72
2021/12/27 12:27:53;;;;;;;0.63;0.63;;;7.40;99.90;;;;;;5073849;28;20269;-72
2021/12/27 12:30:19;;;;;;;1.77;1.67;;;7.40;99.90;;;;;;5074589;28;20176;-72
2021/12/27 12:32:57;;;;;;;1.60;1.50;;;7.40;99.90;;;;;;5074117;28;20171;-73
2021/12/27 12:35:58;;;;;;;1.80;1.70;;;7.40;99.90;;;;;;5073823;28;20600;-72
2021/12/27 12:38:36;;;;;;;2.93;1.10;;;7.40;99.90;;;;;;5041934;28;20188;-73
2021/12/27 12:41:17;;;;;;;1.60;1.50;;;7.50;99.90;;;;;;5066396;28;20216;-73
2021/12/27 12:43:57;;;;;;;0.77;0.77;;;7.50;99.90;;;;;;5073853;28;20190;-73
2021/12/27 12:46:36;;;;;;;1.60;1.13;;;7.50;99.90;;;;;;5067674;28;20434;-73
2021/12/27 12:49:09;;;;;;;0.97;0.97;;;7.60;99.90;;;;;;5073619;28;20171;-73
2021/12/27 12:51:41;;;;;;;1.37;1.37;;;7.70;99.90;;;;;;5092025;28;20266;-74
2021/12/27 12:54:35;;;;;;;1.40;1.40;;;7.80;99.90;;;;;;5073960;28;20175;-73
2021/12/27 12:57:08;;;;;;;1.03;1.03;;;7.80;99.90;;;;;;5089375;28;20194;-73
2021/12/27 12:59:41;;;;;;;1.90;1.80;;;7.90;99.90;;;;;;5073647;28;20667;-73
2021/12/27 13:02:16;;;;;;;1.13;1.10;;;7.90;99.90;;;;;;5073449;28;20715;-73
2021/12/27 13:04:51;;;;;;;2.13;1.50;;;7.90;99.90;;;;;;5073336;28;20198;-73